sensor_id;sensor_type;location;lat;lon;timestamp;P1;durP1;ratioP1;P2;durP2;ratioP2
18931;SDS011;9598;50.954;3.112;2023-03-01T00:03:16;8.55;;;7.70;;
18931;SDS011;9598;50.954;3.112;2023-03-01T00:08:18;9.75;;;7.75;;
18931;SDS011;9598;50.954;3.112;2023-03-01T00:13:20;9.45;;;7.85;;
18931;SDS011;9598;50.954;3.112;2023-03-01T00:18:24;7.97;;;7.15;;
18931;SDS011;9598;50.954;3.112;2023-03-01T00:23:26;8.65;;;7.55;;
18931;SDS011;9598;50.954;3.112;2023-03-01T00:28:29;9.10;;;7.88;;
18931;SDS011;9598;50.954;3.112;2023-03-01T00:33:32;9.77;;;7.47;;
18931;SDS011;9598;50.954;3.112;2023-03-01T00:38:34;9.15;;;8.15;;
18931;SDS011;9598;50.954;3.112;2023-03-01T00:43:37;8.05;;;7.35;;
18931;SDS011;9598;50.954;3.112;2023-03-01T00:48:41;9.27;;;7.88;;
18931;SDS011;9598;50.954;3.112;2023-03-01T00:53:43;9.55;;;7.80;;
18931;SDS011;9598;50.954;3.112;2023-03-01T00:58:46;10.90;;;7.47;;
18931;SDS011;9598;50.954;3.112;2023-03-01T01:03:50;8.25;;;7.47;;
18931;SDS011;9598;50.954;3.112;2023-03-01T01:08:54;8.43;;;7.63;;
18931;SDS011;9598;50.954;3.112;2023-03-01T01:13:58;9.23;;;8.30;;
18931;SDS011;9598;50.954;3.112;2023-03-01T01:19:04;9.82;;;8.73;;
18931;SDS011;9598;50.954;3.112;2023-03-01T01:24:07;9.25;;;8.27;;
18931;SDS011;9598;50.954;3.112;2023-03-01T01:29:09;9.18;;;8.27;;
18931;SDS011;9598;50.954;3.112;2023-03-01T01:34:14;9.07;;;8.20;;
18931;SDS011;9598;50.954;3.112;2023-03-01T01:39:18;10.98;;;9.55;;
18931;SDS011;9598;50.954;3.112;2023-03-01T01:44:21;8.82;;;7.93;;
18931;SDS011;9598;50.954;3.112;2023-03-01T01:49:28;10.73;;;9.63;;
18931;SDS011;9598;50.954;3.112;2023-03-01T01:54:37;10.13;;;9.15;;
18931;SDS011;9598;50.954;3.112;2023-03-01T01:59:43;10.57;;;9.63;;
18931;SDS011;9598;50.954;3.112;2023-03-01T02:04:56;11.10;;;10.07;;
18931;SDS011;9598;50.954;3.112;2023-03-01T02:10:06;11.40;;;10.30;;
18931;SDS011;9598;50.954;3.112;2023-03-01T02:15:09;11.55;;;10.65;;
18931;SDS011;9598;50.954;3.112;2023-03-01T02:20:14;13.00;;;11.77;;
18931;SDS011;9598;50.954;3.112;2023-03-01T02:25:27;13.07;;;11.65;;
18931;SDS011;9598;50.954;3.112;2023-03-01T02:30:36;12.02;;;10.85;;
18931;SDS011;9598;50.954;3.112;2023-03-01T02:35:59;12.52;;;11.35;;
18931;SDS011;9598;50.954;3.112;2023-03-01T02:41:03;12.52;;;11.32;;
18931;SDS011;9598;50.954;3.112;2023-03-01T02:46:13;14.10;;;12.73;;
18931;SDS011;9598;50.954;3.112;2023-03-01T02:51:27;13.77;;;12.30;;
18931;SDS011;9598;50.954;3.112;2023-03-01T02:56:39;15.20;;;13.20;;
18931;SDS011;9598;50.954;3.112;2023-03-01T03:01:45;14.57;;;13.10;;
18931;SDS011;9598;50.954;3.112;2023-03-01T03:06:48;15.32;;;13.15;;
18931;SDS011;9598;50.954;3.112;2023-03-01T03:11:52;14.57;;;13.27;;
18931;SDS011;9598;50.954;3.112;2023-03-01T03:16:55;14.50;;;12.50;;
18931;SDS011;9598;50.954;3.112;2023-03-01T03:21:57;13.85;;;12.45;;
18931;SDS011;9598;50.954;3.112;2023-03-01T03:27:00;14.00;;;12.68;;
18931;SDS011;9598;50.954;3.112;2023-03-01T03:32:03;13.25;;;12.00;;
18931;SDS011;9598;50.954;3.112;2023-03-01T03:37:05;14.52;;;13.23;;
18931;SDS011;9598;50.954;3.112;2023-03-01T03:42:27;12.80;;;11.50;;
18931;SDS011;9598;50.954;3.112;2023-03-01T03:47:31;15.13;;;13.57;;
18931;SDS011;9598;50.954;3.112;2023-03-01T03:52:33;14.65;;;13.20;;
18931;SDS011;9598;50.954;3.112;2023-03-01T03:57:35;13.52;;;12.00;;
18931;SDS011;9598;50.954;3.112;2023-03-01T04:02:39;13.82;;;12.48;;
18931;SDS011;9598;50.954;3.112;2023-03-01T04:07:41;14.90;;;13.50;;
18931;SDS011;9598;50.954;3.112;2023-03-01T04:12:44;16.58;;;13.23;;
18931;SDS011;9598;50.954;3.112;2023-03-01T04:17:47;16.17;;;14.48;;
18931;SDS011;9598;50.954;3.112;2023-03-01T04:22:49;14.67;;;12.87;;
18931;SDS011;9598;50.954;3.112;2023-03-01T04:27:53;15.32;;;13.73;;
18931;SDS011;9598;50.954;3.112;2023-03-01T04:32:56;16.10;;;14.32;;
18931;SDS011;9598;50.954;3.112;2023-03-01T04:37:58;15.88;;;14.32;;
18931;SDS011;9598;50.954;3.112;2023-03-01T04:43:01;18.58;;;16.38;;
18931;SDS011;9598;50.954;3.112;2023-03-01T04:48:06;18.38;;;15.88;;
18931;SDS011;9598;50.954;3.112;2023-03-01T04:53:08;15.90;;;14.25;;
18931;SDS011;9598;50.954;3.112;2023-03-01T04:58:10;16.00;;;14.30;;
18931;SDS011;9598;50.954;3.112;2023-03-01T05:03:13;16.08;;;14.27;;
18931;SDS011;9598;50.954;3.112;2023-03-01T05:08:18;14.57;;;13.18;;
18931;SDS011;9598;50.954;3.112;2023-03-01T05:13:21;15.60;;;13.82;;
18931;SDS011;9598;50.954;3.112;2023-03-01T05:18:25;16.45;;;14.32;;
18931;SDS011;9598;50.954;3.112;2023-03-01T05:23:28;18.10;;;14.13;;
18931;SDS011;9598;50.954;3.112;2023-03-01T05:28:30;15.83;;;14.13;;
18931;SDS011;9598;50.954;3.112;2023-03-01T05:33:34;16.98;;;14.02;;
18931;SDS011;9598;50.954;3.112;2023-03-01T05:38:37;15.20;;;13.57;;
18931;SDS011;9598;50.954;3.112;2023-03-01T05:43:39;16.85;;;13.95;;
18931;SDS011;9598;50.954;3.112;2023-03-01T05:48:45;15.13;;;13.52;;
18931;SDS011;9598;50.954;3.112;2023-03-01T05:53:48;14.75;;;13.25;;
18931;SDS011;9598;50.954;3.112;2023-03-01T05:58:50;15.27;;;13.50;;
18931;SDS011;9598;50.954;3.112;2023-03-01T06:03:53;15.70;;;13.85;;
18931;SDS011;9598;50.954;3.112;2023-03-01T06:08:55;17.10;;;14.48;;
18931;SDS011;9598;50.954;3.112;2023-03-01T06:13:58;17.35;;;15.40;;
18931;SDS011;9598;50.954;3.112;2023-03-01T06:19:01;20.05;;;15.65;;
18931;SDS011;9598;50.954;3.112;2023-03-01T06:24:03;20.95;;;15.45;;
18931;SDS011;9598;50.954;3.112;2023-03-01T06:29:07;25.47;;;19.17;;
18931;SDS011;9598;50.954;3.112;2023-03-01T06:34:11;19.10;;;16.95;;
18931;SDS011;9598;50.954;3.112;2023-03-01T06:39:14;18.73;;;16.48;;
18931;SDS011;9598;50.954;3.112;2023-03-01T06:44:17;16.90;;;14.07;;
18931;SDS011;9598;50.954;3.112;2023-03-01T06:49:21;16.00;;;13.80;;
18931;SDS011;9598;50.954;3.112;2023-03-01T06:54:23;15.98;;;12.70;;
18931;SDS011;9598;50.954;3.112;2023-03-01T06:59:25;17.63;;;14.43;;
18931;SDS011;9598;50.954;3.112;2023-03-01T07:04:29;16.73;;;14.63;;
18931;SDS011;9598;50.954;3.112;2023-03-01T07:09:31;17.23;;;13.93;;
18931;SDS011;9598;50.954;3.112;2023-03-01T07:14:33;15.57;;;13.93;;
18931;SDS011;9598;50.954;3.112;2023-03-01T07:19:36;17.67;;;14.80;;
18931;SDS011;9598;50.954;3.112;2023-03-01T07:24:40;17.17;;;14.77;;
18931;SDS011;9598;50.954;3.112;2023-03-01T07:29:42;20.20;;;16.73;;
18931;SDS011;9598;50.954;3.112;2023-03-01T07:34:46;18.83;;;13.83;;
18931;SDS011;9598;50.954;3.112;2023-03-01T07:39:48;20.73;;;15.23;;
18931;SDS011;9598;50.954;3.112;2023-03-01T07:44:50;18.10;;;15.33;;
18931;SDS011;9598;50.954;3.112;2023-03-01T07:49:53;15.37;;;13.77;;
18931;SDS011;9598;50.954;3.112;2023-03-01T07:54:55;17.17;;;14.03;;
18931;SDS011;9598;50.954;3.112;2023-03-01T07:59:57;17.07;;;13.70;;
18931;SDS011;9598;50.954;3.112;2023-03-01T08:05:01;15.47;;;13.73;;
18931;SDS011;9598;50.954;3.112;2023-03-01T08:10:03;15.63;;;12.50;;
18931;SDS011;9598;50.954;3.112;2023-03-01T08:15:06;20.23;;;14.35;;
18931;SDS011;9598;50.954;3.112;2023-03-01T08:20:11;15.60;;;12.82;;
18931;SDS011;9598;50.954;3.112;2023-03-01T08:25:13;17.03;;;12.83;;
18931;SDS011;9598;50.954;3.112;2023-03-01T08:30:16;14.43;;;12.20;;
18931;SDS011;9598;50.954;3.112;2023-03-01T08:35:20;15.00;;;12.10;;
18931;SDS011;9598;50.954;3.112;2023-03-01T08:40:22;13.57;;;10.10;;
18931;SDS011;9598;50.954;3.112;2023-03-01T08:45:24;12.10;;;10.30;;
18931;SDS011;9598;50.954;3.112;2023-03-01T08:50:27;11.63;;;10.50;;
18931;SDS011;9598;50.954;3.112;2023-03-01T08:55:30;12.20;;;10.90;;
18931;SDS011;9598;50.954;3.112;2023-03-01T09:00:32;11.98;;;10.35;;
18931;SDS011;9598;50.954;3.112;2023-03-01T09:05:36;11.13;;;9.95;;
18931;SDS011;9598;50.954;3.112;2023-03-01T09:10:38;12.10;;;9.55;;
18931;SDS011;9598;50.954;3.112;2023-03-01T09:15:40;10.60;;;8.70;;
18931;SDS011;9598;50.954;3.112;2023-03-01T09:20:44;11.57;;;9.15;;
18931;SDS011;9598;50.954;3.112;2023-03-01T09:25:46;12.93;;;8.88;;
18931;SDS011;9598;50.954;3.112;2023-03-01T09:30:48;9.80;;;8.07;;
18931;SDS011;9598;50.954;3.112;2023-03-01T09:35:55;9.13;;;7.60;;
18931;SDS011;9598;50.954;3.112;2023-03-01T09:40:58;8.40;;;7.53;;
18931;SDS011;9598;50.954;3.112;2023-03-01T09:46:03;9.15;;;7.03;;
18931;SDS011;9598;50.954;3.112;2023-03-01T09:51:14;9.20;;;8.20;;
18931;SDS011;9598;50.954;3.112;2023-03-01T09:56:20;8.10;;;5.00;;
18931;SDS011;9598;50.954;3.112;2023-03-01T10:01:29;9.10;;;6.43;;
18931;SDS011;9598;50.954;3.112;2023-03-01T10:06:36;8.27;;;6.60;;
18931;SDS011;9598;50.954;3.112;2023-03-01T10:11:41;7.20;;;5.20;;
18931;SDS011;9598;50.954;3.112;2023-03-01T10:16:48;8.02;;;5.85;;
18931;SDS011;9598;50.954;3.112;2023-03-01T10:21:56;6.22;;;5.63;;
18931;SDS011;9598;50.954;3.112;2023-03-01T10:27:05;7.72;;;5.78;;
18931;SDS011;9598;50.954;3.112;2023-03-01T10:32:12;7.10;;;5.65;;
18931;SDS011;9598;50.954;3.112;2023-03-01T10:37:17;8.52;;;5.38;;
18931;SDS011;9598;50.954;3.112;2023-03-01T10:42:25;6.68;;;5.68;;
18931;SDS011;9598;50.954;3.112;2023-03-01T10:47:29;7.40;;;5.07;;
18931;SDS011;9598;50.954;3.112;2023-03-01T10:52:33;6.47;;;5.47;;
18931;SDS011;9598;50.954;3.112;2023-03-01T10:57:38;7.03;;;5.20;;
18931;SDS011;9598;50.954;3.112;2023-03-01T11:02:41;6.60;;;4.43;;
18931;SDS011;9598;50.954;3.112;2023-03-01T11:07:48;6.25;;;4.70;;
18931;SDS011;9598;50.954;3.112;2023-03-01T11:12:52;5.80;;;5.20;;
18931;SDS011;9598;50.954;3.112;2023-03-01T11:18:15;9.30;;;5.63;;
18931;SDS011;9598;50.954;3.112;2023-03-01T11:23:22;9.23;;;5.75;;
18931;SDS011;9598;50.954;3.112;2023-03-01T11:28:24;5.97;;;5.00;;
18931;SDS011;9598;50.954;3.112;2023-03-01T11:33:33;6.20;;;5.07;;
18931;SDS011;9598;50.954;3.112;2023-03-01T11:38:39;5.88;;;4.90;;
18931;SDS011;9598;50.954;3.112;2023-03-01T11:43:45;7.32;;;5.55;;
18931;SDS011;9598;50.954;3.112;2023-03-01T11:48:53;7.35;;;4.85;;
18931;SDS011;9598;50.954;3.112;2023-03-01T11:54:09;7.53;;;5.05;;
18931;SDS011;9598;50.954;3.112;2023-03-01T11:59:39;6.35;;;4.65;;
18931;SDS011;9598;50.954;3.112;2023-03-01T12:05:15;8.00;;;5.47;;
18931;SDS011;9598;50.954;3.112;2023-03-01T12:10:27;7.60;;;5.43;;
18931;SDS011;9598;50.954;3.112;2023-03-01T12:15:37;6.88;;;5.03;;
18931;SDS011;9598;50.954;3.112;2023-03-01T12:20:50;6.95;;;5.60;;
18931;SDS011;9598;50.954;3.112;2023-03-01T12:26:04;7.78;;;5.75;;
18931;SDS011;9598;50.954;3.112;2023-03-01T12:31:26;6.40;;;5.75;;
18931;SDS011;9598;50.954;3.112;2023-03-01T12:36:52;7.95;;;5.30;;
18931;SDS011;9598;50.954;3.112;2023-03-01T12:42:07;7.35;;;5.30;;
18931;SDS011;9598;50.954;3.112;2023-03-01T12:47:25;5.80;;;5.18;;
18931;SDS011;9598;50.954;3.112;2023-03-01T12:52:38;6.40;;;4.97;;
18931;SDS011;9598;50.954;3.112;2023-03-01T12:57:45;5.78;;;5.28;;
18931;SDS011;9598;50.954;3.112;2023-03-01T13:02:55;6.13;;;5.53;;
18931;SDS011;9598;50.954;3.112;2023-03-01T13:08:05;7.55;;;5.80;;
18931;SDS011;9598;50.954;3.112;2023-03-01T13:13:18;7.25;;;5.47;;
18931;SDS011;9598;50.954;3.112;2023-03-01T13:18:29;5.82;;;5.05;;
18931;SDS011;9598;50.954;3.112;2023-03-01T13:23:33;6.00;;;4.95;;
18931;SDS011;9598;50.954;3.112;2023-03-01T13:28:45;6.80;;;6.03;;
18931;SDS011;9598;50.954;3.112;2023-03-01T13:33:53;7.30;;;5.93;;
18931;SDS011;9598;50.954;3.112;2023-03-01T13:38:56;7.03;;;6.32;;
18931;SDS011;9598;50.954;3.112;2023-03-01T13:44:01;10.93;;;7.40;;
18931;SDS011;9598;50.954;3.112;2023-03-01T13:49:03;9.02;;;7.18;;
18931;SDS011;9598;50.954;3.112;2023-03-01T13:54:09;9.82;;;8.75;;
18931;SDS011;9598;50.954;3.112;2023-03-01T13:59:16;7.20;;;6.20;;
18931;SDS011;9598;50.954;3.112;2023-03-01T14:04:20;6.70;;;6.00;;
18931;SDS011;9598;50.954;3.112;2023-03-01T14:09:26;9.65;;;6.45;;
18931;SDS011;9598;50.954;3.112;2023-03-01T14:14:38;6.70;;;5.65;;
18931;SDS011;9598;50.954;3.112;2023-03-01T14:19:45;6.80;;;6.10;;
18931;SDS011;9598;50.954;3.112;2023-03-01T14:24:49;9.02;;;6.55;;
18931;SDS011;9598;50.954;3.112;2023-03-01T14:29:58;6.20;;;5.10;;
18931;SDS011;9598;50.954;3.112;2023-03-01T14:35:02;6.90;;;6.20;;
18931;SDS011;9598;50.954;3.112;2023-03-01T14:40:21;7.28;;;5.75;;
18931;SDS011;9598;50.954;3.112;2023-03-01T14:45:27;7.70;;;6.72;;
18931;SDS011;9598;50.954;3.112;2023-03-01T14:50:32;6.85;;;6.13;;
18931;SDS011;9598;50.954;3.112;2023-03-01T14:55:36;6.97;;;5.57;;
18931;SDS011;9598;50.954;3.112;2023-03-01T15:00:44;6.63;;;6.03;;
18931;SDS011;9598;50.954;3.112;2023-03-01T15:05:49;6.97;;;6.22;;
18931;SDS011;9598;50.954;3.112;2023-03-01T15:10:57;7.20;;;6.50;;
18931;SDS011;9598;50.954;3.112;2023-03-01T15:16:07;8.48;;;7.22;;
18931;SDS011;9598;50.954;3.112;2023-03-01T15:21:15;8.90;;;6.05;;
18931;SDS011;9598;50.954;3.112;2023-03-01T15:26:21;5.72;;;5.15;;
18931;SDS011;9598;50.954;3.112;2023-03-01T15:31:27;9.32;;;5.40;;
18931;SDS011;9598;50.954;3.112;2023-03-01T15:36:35;6.28;;;5.68;;
18931;SDS011;9598;50.954;3.112;2023-03-01T15:41:46;8.07;;;5.10;;
18931;SDS011;9598;50.954;3.112;2023-03-01T15:46:50;6.65;;;5.93;;
18931;SDS011;9598;50.954;3.112;2023-03-01T15:51:53;6.05;;;5.45;;
18931;SDS011;9598;50.954;3.112;2023-03-01T15:56:56;7.05;;;5.45;;
18931;SDS011;9598;50.954;3.112;2023-03-01T16:01:59;6.82;;;6.03;;
18931;SDS011;9598;50.954;3.112;2023-03-01T16:07:02;6.18;;;5.57;;
18931;SDS011;9598;50.954;3.112;2023-03-01T16:12:05;7.82;;;7.00;;
18931;SDS011;9598;50.954;3.112;2023-03-01T16:17:12;8.55;;;6.32;;
18931;SDS011;9598;50.954;3.112;2023-03-01T16:22:15;6.13;;;5.57;;
18931;SDS011;9598;50.954;3.112;2023-03-01T16:27:17;6.97;;;6.22;;
18931;SDS011;9598;50.954;3.112;2023-03-01T16:32:22;6.88;;;6.03;;
18931;SDS011;9598;50.954;3.112;2023-03-01T16:37:24;9.35;;;6.57;;
18931;SDS011;9598;50.954;3.112;2023-03-01T16:42:26;8.43;;;7.03;;
18931;SDS011;9598;50.954;3.112;2023-03-01T16:47:30;9.43;;;6.60;;
18931;SDS011;9598;50.954;3.112;2023-03-01T16:52:32;7.95;;;7.05;;
18931;SDS011;9598;50.954;3.112;2023-03-01T16:57:35;7.25;;;6.65;;
18931;SDS011;9598;50.954;3.112;2023-03-01T17:02:39;8.65;;;7.50;;
18931;SDS011;9598;50.954;3.112;2023-03-01T17:07:42;8.98;;;6.90;;
18931;SDS011;9598;50.954;3.112;2023-03-01T17:12:45;7.78;;;6.50;;
18931;SDS011;9598;50.954;3.112;2023-03-01T17:17:50;7.88;;;7.03;;
18931;SDS011;9598;50.954;3.112;2023-03-01T17:22:52;12.93;;;9.75;;
18931;SDS011;9598;50.954;3.112;2023-03-01T17:27:55;7.97;;;7.18;;
18931;SDS011;9598;50.954;3.112;2023-03-01T17:32:58;10.15;;;8.85;;
18931;SDS011;9598;50.954;3.112;2023-03-01T17:38:00;10.38;;;7.82;;
18931;SDS011;9598;50.954;3.112;2023-03-01T17:43:03;11.75;;;9.13;;
18931;SDS011;9598;50.954;3.112;2023-03-01T17:48:07;12.48;;;9.02;;
18931;SDS011;9598;50.954;3.112;2023-03-01T17:53:10;13.25;;;8.93;;
18931;SDS011;9598;50.954;3.112;2023-03-01T17:58:13;13.15;;;11.85;;
18931;SDS011;9598;50.954;3.112;2023-03-01T18:03:17;10.30;;;8.95;;
18931;SDS011;9598;50.954;3.112;2023-03-01T18:08:20;8.98;;;8.07;;
18931;SDS011;9598;50.954;3.112;2023-03-01T18:13:22;10.65;;;8.50;;
18931;SDS011;9598;50.954;3.112;2023-03-01T18:18:26;9.52;;;8.63;;
18931;SDS011;9598;50.954;3.112;2023-03-01T18:23:29;10.85;;;7.90;;
18931;SDS011;9598;50.954;3.112;2023-03-01T18:28:32;11.80;;;9.20;;
18931;SDS011;9598;50.954;3.112;2023-03-01T18:33:36;11.45;;;9.00;;
18931;SDS011;9598;50.954;3.112;2023-03-01T18:38:39;12.27;;;10.98;;
18931;SDS011;9598;50.954;3.112;2023-03-01T18:43:41;10.82;;;9.77;;
18931;SDS011;9598;50.954;3.112;2023-03-01T18:48:44;12.63;;;11.35;;
18931;SDS011;9598;50.954;3.112;2023-03-01T18:53:47;15.80;;;11.68;;
18931;SDS011;9598;50.954;3.112;2023-03-01T18:58:49;12.80;;;10.77;;
18931;SDS011;9598;50.954;3.112;2023-03-01T19:03:53;20.20;;;14.70;;
18931;SDS011;9598;50.954;3.112;2023-03-01T19:08:56;19.70;;;13.45;;
18931;SDS011;9598;50.954;3.112;2023-03-01T19:13:59;19.60;;;14.43;;
18931;SDS011;9598;50.954;3.112;2023-03-01T19:19:04;22.73;;;16.13;;
18931;SDS011;9598;50.954;3.112;2023-03-01T19:24:09;18.63;;;15.38;;
18931;SDS011;9598;50.954;3.112;2023-03-01T19:29:13;17.15;;;13.43;;
18931;SDS011;9598;50.954;3.112;2023-03-01T19:34:17;16.38;;;13.50;;
18931;SDS011;9598;50.954;3.112;2023-03-01T19:39:22;13.63;;;12.20;;
18931;SDS011;9598;50.954;3.112;2023-03-01T19:44:24;16.38;;;12.48;;
18931;SDS011;9598;50.954;3.112;2023-03-01T19:49:27;13.00;;;11.15;;
18931;SDS011;9598;50.954;3.112;2023-03-01T19:54:30;14.57;;;12.95;;
18931;SDS011;9598;50.954;3.112;2023-03-01T19:59:32;13.13;;;11.68;;
18931;SDS011;9598;50.954;3.112;2023-03-01T20:04:35;19.52;;;13.63;;
18931;SDS011;9598;50.954;3.112;2023-03-01T20:09:37;16.70;;;12.90;;
18931;SDS011;9598;50.954;3.112;2023-03-01T20:14:40;15.88;;;13.70;;
18931;SDS011;9598;50.954;3.112;2023-03-01T20:19:44;16.38;;;12.80;;
18931;SDS011;9598;50.954;3.112;2023-03-01T20:24:46;13.10;;;11.30;;
18931;SDS011;9598;50.954;3.112;2023-03-01T20:29:49;18.13;;;12.80;;
18931;SDS011;9598;50.954;3.112;2023-03-01T20:34:52;13.93;;;12.10;;
18931;SDS011;9598;50.954;3.112;2023-03-01T20:39:55;16.08;;;13.15;;
18931;SDS011;9598;50.954;3.112;2023-03-01T20:44:57;15.63;;;11.75;;
18931;SDS011;9598;50.954;3.112;2023-03-01T20:50:00;12.90;;;11.60;;
18931;SDS011;9598;50.954;3.112;2023-03-01T20:55:04;14.43;;;12.23;;
18931;SDS011;9598;50.954;3.112;2023-03-01T21:00:08;13.45;;;11.98;;
18931;SDS011;9598;50.954;3.112;2023-03-01T21:05:12;14.70;;;12.60;;
18931;SDS011;9598;50.954;3.112;2023-03-01T21:10:14;14.10;;;12.68;;
18931;SDS011;9598;50.954;3.112;2023-03-01T21:15:17;14.85;;;12.70;;
18931;SDS011;9598;50.954;3.112;2023-03-01T21:20:21;14.20;;;12.18;;
18931;SDS011;9598;50.954;3.112;2023-03-01T21:25:23;15.05;;;12.95;;
18931;SDS011;9598;50.954;3.112;2023-03-01T21:30:34;18.52;;;13.07;;
18931;SDS011;9598;50.954;3.112;2023-03-01T21:35:37;14.50;;;12.80;;
18931;SDS011;9598;50.954;3.112;2023-03-01T21:40:39;14.13;;;11.20;;
18931;SDS011;9598;50.954;3.112;2023-03-01T21:45:41;13.70;;;11.93;;
18931;SDS011;9598;50.954;3.112;2023-03-01T21:50:45;14.48;;;12.18;;
18931;SDS011;9598;50.954;3.112;2023-03-01T21:55:55;17.27;;;13.23;;
18931;SDS011;9598;50.954;3.112;2023-03-01T22:01:04;18.05;;;13.25;;
18931;SDS011;9598;50.954;3.112;2023-03-01T22:06:08;15.35;;;12.52;;
18931;SDS011;9598;50.954;3.112;2023-03-01T22:11:16;17.30;;;11.68;;
18931;SDS011;9598;50.954;3.112;2023-03-01T22:16:20;15.38;;;11.88;;
18931;SDS011;9598;50.954;3.112;2023-03-01T22:21:26;15.75;;;12.70;;
18931;SDS011;9598;50.954;3.112;2023-03-01T22:26:29;13.70;;;12.02;;
18931;SDS011;9598;50.954;3.112;2023-03-01T22:31:33;15.10;;;11.40;;
18931;SDS011;9598;50.954;3.112;2023-03-01T22:36:36;12.98;;;10.93;;
18931;SDS011;9598;50.954;3.112;2023-03-01T22:41:40;13.23;;;11.35;;
18931;SDS011;9598;50.954;3.112;2023-03-01T22:46:45;15.00;;;10.93;;
18931;SDS011;9598;50.954;3.112;2023-03-01T22:51:48;13.43;;;10.40;;
18931;SDS011;9598;50.954;3.112;2023-03-01T22:56:51;14.32;;;12.32;;
18931;SDS011;9598;50.954;3.112;2023-03-01T23:01:54;15.48;;;11.65;;
18931;SDS011;9598;50.954;3.112;2023-03-01T23:06:58;15.73;;;11.43;;
18931;SDS011;9598;50.954;3.112;2023-03-01T23:12:01;15.38;;;10.98;;
18931;SDS011;9598;50.954;3.112;2023-03-01T23:17:06;12.73;;;10.00;;
18931;SDS011;9598;50.954;3.112;2023-03-01T23:22:11;12.48;;;11.18;;
18931;SDS011;9598;50.954;3.112;2023-03-01T23:27:13;14.50;;;11.20;;
18931;SDS011;9598;50.954;3.112;2023-03-01T23:32:16;12.07;;;10.88;;
18931;SDS011;9598;50.954;3.112;2023-03-01T23:37:20;16.83;;;11.15;;
18931;SDS011;9598;50.954;3.112;2023-03-01T23:42:22;11.82;;;10.35;;
18931;SDS011;9598;50.954;3.112;2023-03-01T23:47:24;13.05;;;11.65;;
18931;SDS011;9598;50.954;3.112;2023-03-01T23:52:35;14.63;;;12.60;;
18931;SDS011;9598;50.954;3.112;2023-03-01T23:57:40;14.57;;;11.30;;
